• Join FlightAware (Why Join?)
  • Login
  • US Flag 
06:03AM EST


 

Airport Tracker/Info


-or-


 

Live Flight TrackerFlight Track Log ✈ SWA1021 ✈ 11-May-2013 ✈ KMCO - KSTL

Flight Track Log - Related Links

Times and Time Zones

All times are in EDT time to prevent confusion due to time zone crossing. See the SWA1021 flight status page for this flight to view local times or setup timezone preferences in your user account.

Time Position Orientation Groundspeed Altitude Reporting Facility
EDT Latitude Longitude Course Direction KTS MPH feet Rate Location/Type
10:23AM 28.4167 -81.3000 204° Southwest 154 177 800  Level Orlando TRACON
10:24AM 28.3500 -81.3333 204° Southwest 206 237 3,900 2,880 Climbing Orlando TRACON
10:25AM 28.3333 -81.4000 254° West 221 254 6,900 3,420 Climbing Orlando TRACON
10:26AM 28.3333 -81.4667 270° West 225 259 10,400 3,240 Climbing Orlando TRACON
10:27AM 28.3333 -81.5333 270° West 243 280 13,500 2,040 Climbing Orlando TRACON
10:29AM 28.3242 -81.7253 267° West 287 330 16,400 1,800 Climbing Jacksonville Center
10:30AM 28.3231 -81.8408 269° West 339 390 18,900 2,400 Climbing Jacksonville Center
10:31AM 28.3178 -81.9658 267° West 379 436 21,200 2,280 Climbing Jacksonville Center
10:32AM 28.3164 -82.0933 269° West 405 466 23,500 2,280 Climbing Jacksonville Center
10:33AM 28.3150 -82.2206 269° West 405 466 25,800 1,200 Climbing Jacksonville Center
10:34AM 28.3117 -82.3503 268° West 410 472 26,000 60 Climbing Jacksonville Center
10:35AM 28.3119 -82.4775 270° West 410 472 26,000  Level Jacksonville Center
10:36AM 28.3875 -82.5694 313° West 370 426 26,000  Level Jacksonville Center
10:37AM 28.5022 -82.6139 341° North 382 440 26,000 600 Level Jacksonville Center
10:38AM 28.6131 -82.6536 343° North 387 445 27,200 1,260 Climbing Jacksonville Center
10:39AM 28.7236 -82.7078 337° Northwest 411 473 28,600 1,560 Climbing Jacksonville Center
10:40AM 28.8239 -82.7883 325° Northwest 423 487 30,400 1,680 Climbing Jacksonville Center
10:41AM 28.9222 -82.8642 326° Northwest 435 501 32,000 780 Climbing Jacksonville Center
10:42AM 29.0222 -82.9400 326° Northwest 435 501 32,000  Level Jacksonville Center
10:43AM 29.1225 -83.0161 326° Northwest 435 501 32,000  Level Jacksonville Center
10:44AM 29.2206 -83.0925 326° Northwest 430 495 32,000  Level Jacksonville Center
10:45AM 29.3183 -83.1664 327° Northwest 425 489 32,000  Level Jacksonville Center
10:46AM 29.4164 -83.2406 327° Northwest 425 489 32,000  Level Jacksonville Center
10:47AM 29.5122 -83.3150 326° Northwest 419 482 32,000  Level Jacksonville Center
10:48AM 29.6100 -83.3919 326° Northwest 419 482 32,000  Level Jacksonville Center
10:49AM 29.6975 -83.4592 326° Northwest 419 482 32,000  Level Jacksonville Center
10:50AM 29.7953 -83.5339 326° Northwest 419 482 32,000  Level Jacksonville Center
10:51AM 29.8908 -83.6089 326° Northwest 419 482 32,000  Level Jacksonville Center
10:52AM 29.9883 -83.6839 326° Northwest 419 482 32,000  Level Jacksonville Center
10:53AM 30.0881 -83.7617 326° Northwest 419 482 32,000  Level Jacksonville Center
10:54AM 30.1878 -83.8394 326° Northwest 424 488 32,000  Level Jacksonville Center
10:55AM 30.2853 -83.9150 326° Northwest 424 488 32,000  Level Jacksonville Center
10:56AM 30.3869 -83.9931 326° Northwest 424 488 32,000  Level Jacksonville Center
10:57AM 30.4844 -84.0736 325° Northwest 424 488 32,000  Level Jacksonville Center
10:58AM 30.5903 -84.1547 327° Northwest 424 488 32,000  Level Jacksonville Center
10:59AM 30.6917 -84.2358 325° Northwest 424 488 32,000 -120 Level Jacksonville Center
11:00AM 30.7931 -84.3147 326° Northwest 424 488 31,800 -660 Descending Jacksonville Center
11:01AM 30.8883 -84.3933 325° Northwest 424 488 30,700 -900 Descending Jacksonville Center
11:02AM 30.9833 -84.4678 326° Northwest 419 482 30,000 -360 Descending Jacksonville Center
11:03AM 31.0806 -84.5469 325° Northwest 419 482 30,000  Level Jacksonville Center
11:04AM 31.1797 -84.6239 326° Northwest 419 482 30,000  Level Jacksonville Center
11:06AM 31.3978 -84.8028 325° Northwest 426 490 30,000  Level Atlanta Center
11:07AM 31.4994 -84.8839 326° Northwest 426 490 30,000 -360 Level Atlanta Center
11:08AM 31.5969 -84.9628 325° Northwest 426 490 29,300 -840 Descending Atlanta Center
11:09AM 31.6967 -85.0419 326° Northwest 426 490 28,400 -960 Descending Atlanta Center
11:10AM 31.7942 -85.1214 325° Northwest 426 490 27,400 -1,080 Descending Atlanta Center
11:11AM 31.8997 -85.2058 326° Northwest 421 484 26,300 -900 Descending Atlanta Center
11:12AM 31.9969 -85.2853 325° Northwest 421 484 25,700 -780 Descending Atlanta Center
11:13AM 32.0942 -85.3678 324° Northwest 421 484 24,800 -900 Descending Atlanta Center
11:14AM 32.1936 -85.4475 326° Northwest 421 484 24,000 -420 Descending Atlanta Center
11:15AM 32.2950 -85.5278 326° Northwest 427 491 24,000  Level Atlanta Center
11:16AM 32.3942 -85.6131 324° Northwest 427 491 24,000  Level Atlanta Center
11:17AM 32.4953 -85.6939 326° Northwest 432 497 24,000  Level Atlanta Center
11:18AM 32.5944 -85.7769 325° Northwest 442 509 24,000  Level Atlanta Center
11:19AM 32.6953 -85.8628 324° Northwest 442 509 24,000  Level Atlanta Center
11:20AM 32.7983 -85.9467 326° Northwest 442 509 24,000  Level Atlanta Center
11:21AM 32.8933 -86.0253 325° Northwest 447 514 24,000  Level Atlanta Center
11:22AM 32.9858 -86.1067 324° Northwest 427 491 24,000  Level Atlanta Center
11:23AM 33.0722 -86.1806 324° Northwest 422 486 24,000  Level Atlanta Center
11:24AM 33.1647 -86.2572 325° Northwest 422 486 24,000  Level Atlanta Center
11:25AM 33.2553 -86.3367 324° Northwest 415 478 24,000  Level Atlanta Center
11:26AM 33.3478 -86.4136 325° Northwest 410 472 24,000  Level Atlanta Center
11:27AM 33.4464 -86.4936 326° Northwest 396 456 24,000  Level Atlanta Center
11:28AM 33.5344 -86.5733 323° Northwest 401 461 24,000 420 Level Atlanta Center
11:29AM 33.6267 -86.6533 324° Northwest 401 461 24,900 2,220 Climbing Atlanta Center
11:30AM 33.7128 -86.7258 325° Northwest 401 461 28,500 1,860 Climbing Atlanta Center
11:32AM 33.8731 -86.8672 324° Northwest 398 458 30,200 1,020 Climbing Memphis Center
11:33AM 33.9736 -86.9508 325° Northwest 417 480 31,400 1,320 Climbing Memphis Center
11:34AM 34.0697 -87.0372 323° Northwest 437 503 32,900 1,260 Climbing Memphis Center
11:35AM 34.1681 -87.1239 324° Northwest 437 503 34,000 540 Climbing Memphis Center
11:36AM 34.2597 -87.2008 325° Northwest 432 497 34,000 660 Level Memphis Center
11:37AM 34.3472 -87.2756 325° Northwest 416 479 35,400 2,460 Climbing Memphis Center
11:38AM 34.4494 -87.3600 326° Northwest 408 470 39,000 1,800 Climbing Memphis Center
11:39AM 34.5328 -87.4403 322° Northwest 392 451 39,000  Level Memphis Center
11:40AM 34.6053 -87.5083 322° Northwest 380 437 39,000  Level Memphis Center
11:41AM 34.7031 -87.5883 326° Northwest 374 430 39,000 120 Level Memphis Center
11:42AM 34.7883 -87.6667 323° Northwest 374 430 39,300 480 Climbing Memphis Center
11:43AM 34.8650 -87.7375 323° Northwest 384 442 40,000 300 Climbing Memphis Center
11:44AM 34.9583 -87.8208 324° Northwest 379 436 40,000  Level Memphis Center
11:45AM 35.0497 -87.8992 325° Northwest 385 443 40,000  Level Memphis Center
11:46AM 35.1242 -87.9681 323° Northwest 390 449 40,000  Level Memphis Center
11:47AM 35.2239 -88.0567 324° Northwest 390 449 40,000  Level Memphis Center
11:48AM 35.3086 -88.1358 323° Northwest 390 449 40,000  Level Memphis Center
11:49AM 35.3956 -88.2125 324° Northwest 390 449 40,000  Level Memphis Center
11:50AM 35.4822 -88.2867 325° Northwest 385 443 40,000  Level Memphis Center
11:51AM 35.5669 -88.3689 322° Northwest 385 443 40,000  Level Memphis Center
11:52AM 35.6558 -88.4483 324° Northwest 390 449 40,000  Level Memphis Center
11:53AM 35.7467 -88.5281 325° Northwest 396 456 40,000  Level Memphis Center
11:54AM 35.8378 -88.6131 323° Northwest 401 461 40,000  Level Memphis Center
11:55AM 35.9286 -88.6958 324° Northwest 401 461 40,000  Level Memphis Center
11:56AM 36.0192 -88.7814 323° Northwest 406 467 40,000  Level Memphis Center
11:57AM 36.1100 -88.8669 323° Northwest 406 467 40,000 -60 Level Memphis Center
11:58AM 36.2028 -88.9500 324° Northwest 406 467 39,900 -540 Descending Memphis Center
11:59AM 36.2975 -89.0358 324° Northwest 406 467 39,000 -960 Descending Memphis Center
12:00PM 36.3981 -89.0883 337° Northwest 423 487 38,000 -960 Descending Memphis Center
12:01PM 36.5114 -89.1564 334° Northwest 436 502 37,100 -960 Descending Memphis Center
12:02PM 36.6203 -89.2219 334° Northwest 436 502 36,100 -960 Descending Memphis Center
12:03PM 36.7314 -89.2800 337° Northwest 436 502 35,200 -1,500 Descending Memphis Center
12:04PM 36.8606 -89.2964 354° North 443 510 33,200 -1,500 Descending Memphis Center
12:05PM 36.9736 -89.3572 337° Northwest 443 510 32,200 -1,680 Descending Memphis Center
12:06PM 37.0661 -89.4392 325° Northwest 422 486 29,900 -1,860 Descending Memphis Center
12:08PM 37.2908 -89.6108 329° Northwest 395 455 26,000 -1,200 Descending Kansas City Center
12:09PM 37.3936 -89.6628 338° Northwest 398 458 26,000  Level Kansas City Center
12:10PM 37.4953 -89.7186 336° Northwest 398 458 26,000 -960 Level Kansas City Center
12:11PM 37.6064 -89.7808 336° Northwest 393 452 24,100 -2,040 Descending Kansas City Center
12:12PM 37.7031 -89.8344 336° Northwest 384 442 21,900 -2,100 Descending Kansas City Center
12:13PM 37.7967 -89.8861 336° Northwest 372 428 19,800 -2,040 Descending Kansas City Center
12:14PM 37.8975 -89.9406 337° Northwest 360 414 17,700 -2,160 Descending Kansas City Center
12:15PM 37.9908 -89.9900 337° Northwest 342 394 15,400 -2,100 Descending Kansas City Center
12:16PM 38.0744 -90.0392 335° Northwest 334 384 13,400 -1,980 Descending Kansas City Center
12:18PM 38.1597 -90.0750 342° North 323 372 11,400 -1,560 Descending Kansas City Center
12:19PM 38.2458 -90.0817 357° North 313 360 10,200 -840 Descending Kansas City Center
12:20PM 38.3222 -90.0903 355° North 290 334 9,700 -1,020 Descending Kansas City Center
12:21PM 38.4011 -90.1053 352° North 266 306 8,100 -1,560 Descending Kansas City Center
12:22PM 38.4628 -90.1253 346° North 259 298 6,500 -1,500 Descending Kansas City Center
12:23PM 38.5428 -90.1483 347° North 253 291 5,100 -1,320 Descending Kansas City Center
12:24PM 38.6022 -90.1747 341° North 239 275 3,900 -1,080 Descending Kansas City Center
12:25PM 38.6561 -90.2106 333° Northwest 227 261 3,000 -780 Descending Kansas City Center
12:26PM 38.6928 -90.2469 322° Northwest 191 220 2,300 -720 Descending Kansas City Center
12:27PM 38.7136 -90.2878 303° West 157 181 1,600 -780 Descending Kansas City Center
12:28PM 38.7372 -90.3358 302° West 141 162 700 -540 Descending Kansas City Center
12:29PM 38.7567 -90.3761 302° West 140 161 600 -120 Descending Kansas City Center